Turaif, Saudi Arabia
Current Conditions -  °F | °C
As of 5:00 PM on Thursday 23 Oct 2014 (Local Time) from OETR Reporting Station
Clear Clear  
Wind Chill: 79°   Ceiling: Unl
Heat Index: 79°   Visibility: 6mi
Dew Point: 41°   Wind: 9mph
Humidity: 26%   Direction: 270°W
Pressure: 29.97"   Gusts: NA
Location:  31.69°N, 38.73°E
Report Text: OETR 231400Z 27008KT CAVOK 26/05 Q1015
Loading
Personal Weather Stations






























Interactive Weather Map
Tropical Storm Tracking
New forecast layout! Learn more

10-Day Weather Forecast

Advertisements
Track Severe Weather on mobile